sensor_id;sensor_type;location;lat;lon;timestamp;pressure;altitude;pressure_sealevel;temperature;humidity
36138;BME280;67787;50.074;21.904;2023-04-10T00:01:19;99744.48;;;6.35;73.65
36138;BME280;67787;50.074;21.904;2023-04-10T00:03:47;99744.75;;;6.32;73.59
36138;BME280;67787;50.074;21.904;2023-04-10T00:06:16;99742.24;;;6.30;73.51
36138;BME280;67787;50.074;21.904;2023-04-10T00:08:43;99741.78;;;6.28;73.48
36138;BME280;67787;50.074;21.904;2023-04-10T00:11:11;99736.02;;;6.27;73.74
36138;BME280;67787;50.074;21.904;2023-04-10T00:13:40;99732.17;;;6.26;73.79
36138;BME280;67787;50.074;21.904;2023-04-10T00:16:08;99732.40;;;6.25;73.80
36138;BME280;67787;50.074;21.904;2023-04-10T00:18:36;99729.70;;;6.22;73.70
36138;BME280;67787;50.074;21.904;2023-04-10T00:21:04;99730.90;;;6.19;73.78
36138;BME280;67787;50.074;21.904;2023-04-10T00:23:32;99730.16;;;6.16;73.61
36138;BME280;67787;50.074;21.904;2023-04-10T00:26:01;99728.80;;;6.15;73.77
36138;BME280;67787;50.074;21.904;2023-04-10T00:28:30;99721.13;;;6.13;73.94
36138;BME280;67787;50.074;21.904;2023-04-10T00:30:58;99723.26;;;6.12;73.97
36138;BME280;67787;50.074;21.904;2023-04-10T00:33:26;99724.85;;;6.12;73.79
36138;BME280;67787;50.074;21.904;2023-04-10T00:35:53;99723.84;;;6.11;73.85
36138;BME280;67787;50.074;21.904;2023-04-10T00:38:22;99722.60;;;6.11;73.84
36138;BME280;67787;50.074;21.904;2023-04-10T00:40:49;99722.61;;;6.11;73.76
36138;BME280;67787;50.074;21.904;2023-04-10T00:43:18;99721.22;;;6.11;73.92
36138;BME280;67787;50.074;21.904;2023-04-10T00:45:47;99718.77;;;6.10;73.98
36138;BME280;67787;50.074;21.904;2023-04-10T00:48:17;99724.05;;;6.10;73.86
36138;BME280;67787;50.074;21.904;2023-04-10T00:50:45;99722.41;;;6.11;73.98
36138;BME280;67787;50.074;21.904;2023-04-10T00:53:15;99722.27;;;6.11;74.00
36138;BME280;67787;50.074;21.904;2023-04-10T00:55:43;99718.85;;;6.13;74.05
36138;BME280;67787;50.074;21.904;2023-04-10T00:58:13;99721.84;;;6.13;73.93
36138;BME280;67787;50.074;21.904;2023-04-10T01:00:41;99722.00;;;6.13;73.99
36138;BME280;67787;50.074;21.904;2023-04-10T01:03:14;99717.41;;;6.13;74.05
36138;BME280;67787;50.074;21.904;2023-04-10T01:05:51;99717.27;;;6.13;74.18
36138;BME280;67787;50.074;21.904;2023-04-10T01:11:26;99712.97;;;6.10;73.94
36138;BME280;67787;50.074;21.904;2023-04-10T01:14:04;99712.69;;;6.08;74.41
36138;BME280;67787;50.074;21.904;2023-04-10T01:16:42;99711.22;;;6.06;74.48
36138;BME280;67787;50.074;21.904;2023-04-10T01:22:21;99705.14;;;6.04;74.41
36138;BME280;67787;50.074;21.904;2023-04-10T01:25:05;99703.80;;;6.02;74.55
36138;BME280;67787;50.074;21.904;2023-04-10T01:27:49;99697.73;;;6.00;74.34
36138;BME280;67787;50.074;21.904;2023-04-10T01:30:21;99698.12;;;5.98;74.45
36138;BME280;67787;50.074;21.904;2023-04-10T01:32:53;99699.94;;;5.97;74.46
36138;BME280;67787;50.074;21.904;2023-04-10T01:35:23;99700.63;;;5.97;74.41
36138;BME280;67787;50.074;21.904;2023-04-10T01:37:52;99702.02;;;5.97;74.38
36138;BME280;67787;50.074;21.904;2023-04-10T01:40:22;99703.30;;;5.96;74.46
36138;BME280;67787;50.074;21.904;2023-04-10T01:42:55;99701.69;;;5.97;74.46
36138;BME280;67787;50.074;21.904;2023-04-10T01:45:26;99697.64;;;5.97;74.45
36138;BME280;67787;50.074;21.904;2023-04-10T01:47:55;99698.70;;;5.97;74.59
36138;BME280;67787;50.074;21.904;2023-04-10T01:50:23;99695.19;;;5.97;74.39
36138;BME280;67787;50.074;21.904;2023-04-10T01:52:55;99695.86;;;5.98;74.86
36138;BME280;67787;50.074;21.904;2023-04-10T01:55:25;99692.86;;;5.98;74.59
36138;BME280;67787;50.074;21.904;2023-04-10T01:57:54;99692.73;;;5.96;74.66
36138;BME280;67787;50.074;21.904;2023-04-10T02:00:22;99694.52;;;5.96;74.81
36138;BME280;67787;50.074;21.904;2023-04-10T02:02:50;99695.80;;;5.95;74.55
36138;BME280;67787;50.074;21.904;2023-04-10T02:05:19;99693.69;;;5.94;74.83
36138;BME280;67787;50.074;21.904;2023-04-10T02:07:56;99695.14;;;5.94;74.65
36138;BME280;67787;50.074;21.904;2023-04-10T02:10:32;99695.71;;;5.93;74.92
36138;BME280;67787;50.074;21.904;2023-04-10T02:13:09;99698.41;;;5.92;75.15
36138;BME280;67787;50.074;21.904;2023-04-10T02:15:41;99702.85;;;5.91;74.90
36138;BME280;67787;50.074;21.904;2023-04-10T02:18:11;99702.10;;;5.91;74.71
36138;BME280;67787;50.074;21.904;2023-04-10T02:20:43;99701.87;;;5.93;74.70
36138;BME280;67787;50.074;21.904;2023-04-10T02:23:11;99703.25;;;5.94;74.79
36138;BME280;67787;50.074;21.904;2023-04-10T02:25:43;99702.89;;;5.94;74.51
36138;BME280;67787;50.074;21.904;2023-04-10T02:28:11;99707.59;;;5.95;74.73
36138;BME280;67787;50.074;21.904;2023-04-10T02:30:39;99702.96;;;5.96;74.83
36138;BME280;67787;50.074;21.904;2023-04-10T02:33:07;99701.33;;;5.98;74.84
36138;BME280;67787;50.074;21.904;2023-04-10T02:35:36;99696.90;;;5.98;74.84
36138;BME280;67787;50.074;21.904;2023-04-10T02:38:04;99702.33;;;5.99;74.74
36138;BME280;67787;50.074;21.904;2023-04-10T02:40:32;99700.26;;;5.98;74.79
36138;BME280;67787;50.074;21.904;2023-04-10T02:43:00;99702.58;;;5.97;74.62
36138;BME280;67787;50.074;21.904;2023-04-10T02:45:28;99704.23;;;5.96;74.78
36138;BME280;67787;50.074;21.904;2023-04-10T02:47:56;99702.19;;;5.94;74.73
36138;BME280;67787;50.074;21.904;2023-04-10T02:50:24;99698.00;;;5.93;74.82
36138;BME280;67787;50.074;21.904;2023-04-10T02:52:56;99694.65;;;5.93;74.72
36138;BME280;67787;50.074;21.904;2023-04-10T02:55:23;99690.58;;;5.94;75.02
36138;BME280;67787;50.074;21.904;2023-04-10T02:57:52;99688.85;;;5.93;74.86
36138;BME280;67787;50.074;21.904;2023-04-10T03:00:20;99682.57;;;5.91;74.60
36138;BME280;67787;50.074;21.904;2023-04-10T03:02:49;99682.59;;;5.91;74.97
36138;BME280;67787;50.074;21.904;2023-04-10T03:05:18;99686.56;;;5.89;74.82
36138;BME280;67787;50.074;21.904;2023-04-10T03:07:46;99690.33;;;5.88;74.86
36138;BME280;67787;50.074;21.904;2023-04-10T03:10:14;99689.98;;;5.87;74.99
36138;BME280;67787;50.074;21.904;2023-04-10T03:12:42;99687.37;;;5.87;74.98
36138;BME280;67787;50.074;21.904;2023-04-10T03:15:10;99689.31;;;5.86;74.86
36138;BME280;67787;50.074;21.904;2023-04-10T03:17:39;99686.20;;;5.85;74.87
36138;BME280;67787;50.074;21.904;2023-04-10T03:20:08;99684.88;;;5.83;74.83
36138;BME280;67787;50.074;21.904;2023-04-10T03:22:36;99689.17;;;5.81;74.90
36138;BME280;67787;50.074;21.904;2023-04-10T03:25:04;99685.39;;;5.79;74.98
36138;BME280;67787;50.074;21.904;2023-04-10T03:27:33;99685.98;;;5.78;74.98
36138;BME280;67787;50.074;21.904;2023-04-10T03:30:01;99687.05;;;5.77;75.23
36138;BME280;67787;50.074;21.904;2023-04-10T03:32:29;99684.64;;;5.76;74.95
36138;BME280;67787;50.074;21.904;2023-04-10T03:34:57;99686.22;;;5.76;75.06
36138;BME280;67787;50.074;21.904;2023-04-10T03:37:25;99686.31;;;5.74;75.29
36138;BME280;67787;50.074;21.904;2023-04-10T03:39:54;99687.77;;;5.72;75.32
36138;BME280;67787;50.074;21.904;2023-04-10T03:42:23;99686.60;;;5.72;75.33
36138;BME280;67787;50.074;21.904;2023-04-10T03:44:51;99691.91;;;5.71;75.09
36138;BME280;67787;50.074;21.904;2023-04-10T03:47:18;99691.95;;;5.70;75.27
36138;BME280;67787;50.074;21.904;2023-04-10T03:49:46;99691.45;;;5.69;75.51
36138;BME280;67787;50.074;21.904;2023-04-10T03:52:14;99689.19;;;5.69;75.29
36138;BME280;67787;50.074;21.904;2023-04-10T03:54:42;99689.02;;;5.69;75.37
36138;BME280;67787;50.074;21.904;2023-04-10T03:57:10;99692.22;;;5.68;75.40
36138;BME280;67787;50.074;21.904;2023-04-10T03:59:38;99686.83;;;5.66;75.46
36138;BME280;67787;50.074;21.904;2023-04-10T04:02:06;99691.08;;;5.65;75.56
36138;BME280;67787;50.074;21.904;2023-04-10T04:04:34;99690.28;;;5.64;75.65
36138;BME280;67787;50.074;21.904;2023-04-10T04:07:02;99693.16;;;5.62;75.79
36138;BME280;67787;50.074;21.904;2023-04-10T04:09:30;99699.37;;;5.61;75.85
36138;BME280;67787;50.074;21.904;2023-04-10T04:11:58;99696.77;;;5.60;75.89
36138;BME280;67787;50.074;21.904;2023-04-10T04:14:26;99692.75;;;5.59;75.90
36138;BME280;67787;50.074;21.904;2023-04-10T04:16:54;99687.80;;;5.59;75.87
36138;BME280;67787;50.074;21.904;2023-04-10T04:19:22;99688.81;;;5.61;75.81
36138;BME280;67787;50.074;21.904;2023-04-10T04:21:49;99693.16;;;5.62;76.27
36138;BME280;67787;50.074;21.904;2023-04-10T04:24:17;99692.75;;;5.63;75.82
36138;BME280;67787;50.074;21.904;2023-04-10T04:26:46;99688.64;;;5.65;76.07
36138;BME280;67787;50.074;21.904;2023-04-10T04:29:14;99691.92;;;5.66;75.82
36138;BME280;67787;50.074;21.904;2023-04-10T04:31:42;99692.02;;;5.69;76.01
36138;BME280;67787;50.074;21.904;2023-04-10T04:34:10;99692.42;;;5.71;75.83
36138;BME280;67787;50.074;21.904;2023-04-10T04:36:38;99693.17;;;5.74;75.86
36138;BME280;67787;50.074;21.904;2023-04-10T04:39:06;99701.52;;;5.77;76.23
36138;BME280;67787;50.074;21.904;2023-04-10T04:41:34;99699.52;;;5.78;76.11
36138;BME280;67787;50.074;21.904;2023-04-10T04:44:03;99699.77;;;5.80;76.27
36138;BME280;67787;50.074;21.904;2023-04-10T04:46:31;99700.61;;;5.81;76.23
36138;BME280;67787;50.074;21.904;2023-04-10T04:48:59;99701.28;;;5.82;76.10
36138;BME280;67787;50.074;21.904;2023-04-10T04:51:30;99705.15;;;5.82;75.98
36138;BME280;67787;50.074;21.904;2023-04-10T04:53:58;99701.79;;;5.83;76.15
36138;BME280;67787;50.074;21.904;2023-04-10T04:56:26;99700.86;;;5.84;76.10
36138;BME280;67787;50.074;21.904;2023-04-10T04:58:54;99703.48;;;5.85;76.40
36138;BME280;67787;50.074;21.904;2023-04-10T05:01:22;99700.08;;;5.86;76.58
36138;BME280;67787;50.074;21.904;2023-04-10T05:03:50;99701.30;;;5.86;76.42
36138;BME280;67787;50.074;21.904;2023-04-10T05:06:18;99706.27;;;5.89;76.58
36138;BME280;67787;50.074;21.904;2023-04-10T05:08:47;99711.38;;;5.93;76.52
36138;BME280;67787;50.074;21.904;2023-04-10T05:11:16;99713.31;;;5.97;76.39
36138;BME280;67787;50.074;21.904;2023-04-10T05:13:44;99715.69;;;6.00;76.96
36138;BME280;67787;50.074;21.904;2023-04-10T05:16:12;99720.63;;;6.04;76.74
36138;BME280;67787;50.074;21.904;2023-04-10T05:18:40;99715.02;;;6.08;76.69
36138;BME280;67787;50.074;21.904;2023-04-10T05:21:08;99715.91;;;6.11;76.70
36138;BME280;67787;50.074;21.904;2023-04-10T05:23:36;99718.55;;;6.15;76.95
36138;BME280;67787;50.074;21.904;2023-04-10T05:26:05;99719.55;;;6.17;76.56
36138;BME280;67787;50.074;21.904;2023-04-10T05:28:33;99729.51;;;6.19;77.08
36138;BME280;67787;50.074;21.904;2023-04-10T05:31:01;99730.11;;;6.21;76.89
36138;BME280;67787;50.074;21.904;2023-04-10T05:33:29;99732.47;;;6.23;76.65
36138;BME280;67787;50.074;21.904;2023-04-10T05:35:57;99734.72;;;6.28;76.88
36138;BME280;67787;50.074;21.904;2023-04-10T05:38:25;99737.95;;;6.31;77.10
36138;BME280;67787;50.074;21.904;2023-04-10T05:40:53;99738.49;;;6.34;77.27
36138;BME280;67787;50.074;21.904;2023-04-10T05:43:22;99741.59;;;6.36;77.16
36138;BME280;67787;50.074;21.904;2023-04-10T05:45:49;99741.64;;;6.39;77.09
36138;BME280;67787;50.074;21.904;2023-04-10T05:48:17;99741.10;;;6.44;76.91
36138;BME280;67787;50.074;21.904;2023-04-10T05:50:45;99738.90;;;6.50;76.92
36138;BME280;67787;50.074;21.904;2023-04-10T05:53:13;99742.41;;;6.57;76.95
36138;BME280;67787;50.074;21.904;2023-04-10T05:55:42;99738.71;;;6.69;76.81
36138;BME280;67787;50.074;21.904;2023-04-10T05:58:10;99731.13;;;6.81;76.94
36138;BME280;67787;50.074;21.904;2023-04-10T06:00:38;99733.46;;;6.91;77.00
36138;BME280;67787;50.074;21.904;2023-04-10T06:03:05;99733.83;;;6.99;77.00
36138;BME280;67787;50.074;21.904;2023-04-10T06:05:33;99735.57;;;7.07;77.06
36138;BME280;67787;50.074;21.904;2023-04-10T06:08:02;99728.78;;;7.16;77.02
36138;BME280;67787;50.074;21.904;2023-04-10T06:10:31;99730.61;;;7.26;77.09
36138;BME280;67787;50.074;21.904;2023-04-10T06:12:59;99726.72;;;7.37;77.18
36138;BME280;67787;50.074;21.904;2023-04-10T06:15:28;99727.45;;;7.43;77.12
36138;BME280;67787;50.074;21.904;2023-04-10T06:17:55;99729.48;;;7.56;77.21
36138;BME280;67787;50.074;21.904;2023-04-10T06:20:23;99733.94;;;7.70;77.32
36138;BME280;67787;50.074;21.904;2023-04-10T06:22:52;99726.55;;;7.83;77.18
36138;BME280;67787;50.074;21.904;2023-04-10T06:25:21;99727.14;;;7.96;77.24
36138;BME280;67787;50.074;21.904;2023-04-10T06:27:49;99730.89;;;8.06;77.04
36138;BME280;67787;50.074;21.904;2023-04-10T06:30:17;99731.94;;;8.09;76.97
36138;BME280;67787;50.074;21.904;2023-04-10T06:32:45;99729.60;;;8.14;77.07
36138;BME280;67787;50.074;21.904;2023-04-10T06:35:13;99731.10;;;8.15;77.23
36138;BME280;67787;50.074;21.904;2023-04-10T06:37:41;99736.80;;;8.11;77.09
36138;BME280;67787;50.074;21.904;2023-04-10T06:40:12;99732.40;;;8.03;77.08
36138;BME280;67787;50.074;21.904;2023-04-10T06:42:41;99724.83;;;8.00;77.10
36138;BME280;67787;50.074;21.904;2023-04-10T06:45:09;99725.33;;;8.00;77.32
36138;BME280;67787;50.074;21.904;2023-04-10T06:47:37;99721.52;;;8.02;77.22
36138;BME280;67787;50.074;21.904;2023-04-10T06:50:05;99720.81;;;8.06;77.30
36138;BME280;67787;50.074;21.904;2023-04-10T06:52:33;99722.16;;;8.11;77.38
36138;BME280;67787;50.074;21.904;2023-04-10T06:55:01;99723.97;;;8.16;77.33
36138;BME280;67787;50.074;21.904;2023-04-10T06:57:29;99722.67;;;8.21;77.34
36138;BME280;67787;50.074;21.904;2023-04-10T06:59:57;99724.63;;;8.24;77.44
36138;BME280;67787;50.074;21.904;2023-04-10T07:02:25;99725.35;;;8.27;77.41
36138;BME280;67787;50.074;21.904;2023-04-10T07:04:53;99720.58;;;8.34;77.47
36138;BME280;67787;50.074;21.904;2023-04-10T07:07:23;99719.02;;;8.44;77.66
36138;BME280;67787;50.074;21.904;2023-04-10T07:09:52;99720.21;;;8.52;77.72
36138;BME280;67787;50.074;21.904;2023-04-10T07:12:20;99718.46;;;8.61;77.52
36138;BME280;67787;50.074;21.904;2023-04-10T07:14:49;99717.67;;;8.73;77.42
36138;BME280;67787;50.074;21.904;2023-04-10T07:17:17;99718.11;;;8.84;77.52
36138;BME280;67787;50.074;21.904;2023-04-10T07:19:45;99716.21;;;8.97;77.55
36138;BME280;67787;50.074;21.904;2023-04-10T07:22:13;99721.02;;;9.09;77.51
36138;BME280;67787;50.074;21.904;2023-04-10T07:24:43;99718.55;;;9.21;77.57
36138;BME280;67787;50.074;21.904;2023-04-10T07:27:10;99714.65;;;9.40;77.38
36138;BME280;67787;50.074;21.904;2023-04-10T07:29:39;99718.09;;;9.60;77.31
36138;BME280;67787;50.074;21.904;2023-04-10T07:32:10;99714.77;;;9.78;77.05
36138;BME280;67787;50.074;21.904;2023-04-10T07:34:39;99715.02;;;9.98;77.22
36138;BME280;67787;50.074;21.904;2023-04-10T07:37:08;99714.77;;;10.14;76.94
36138;BME280;67787;50.074;21.904;2023-04-10T07:39:37;99712.61;;;10.26;76.97
36138;BME280;67787;50.074;21.904;2023-04-10T07:42:05;99704.84;;;10.38;77.05
36138;BME280;67787;50.074;21.904;2023-04-10T07:44:33;99705.54;;;10.47;77.04
36138;BME280;67787;50.074;21.904;2023-04-10T07:47:02;99706.58;;;10.62;76.92
36138;BME280;67787;50.074;21.904;2023-04-10T07:49:30;99706.64;;;10.75;77.02
36138;BME280;67787;50.074;21.904;2023-04-10T07:51:58;99705.11;;;10.90;77.30
36138;BME280;67787;50.074;21.904;2023-04-10T07:54:29;99703.33;;;11.05;76.83
36138;BME280;67787;50.074;21.904;2023-04-10T07:57:01;99707.07;;;11.15;76.30
36138;BME280;67787;50.074;21.904;2023-04-10T07:59:29;99705.61;;;11.19;76.04
36138;BME280;67787;50.074;21.904;2023-04-10T08:01:57;99702.19;;;11.17;76.35
36138;BME280;67787;50.074;21.904;2023-04-10T08:04:24;99703.67;;;11.15;76.26
36138;BME280;67787;50.074;21.904;2023-04-10T08:06:53;99704.25;;;11.15;76.56
36138;BME280;67787;50.074;21.904;2023-04-10T08:09:22;99702.61;;;11.16;76.41
36138;BME280;67787;50.074;21.904;2023-04-10T08:11:50;99705.09;;;11.19;76.22
36138;BME280;67787;50.074;21.904;2023-04-10T08:14:18;99698.59;;;11.21;76.47
36138;BME280;67787;50.074;21.904;2023-04-10T08:16:45;99699.21;;;11.19;76.39
36138;BME280;67787;50.074;21.904;2023-04-10T08:19:13;99689.16;;;11.18;76.35
36138;BME280;67787;50.074;21.904;2023-04-10T08:21:41;99694.25;;;11.21;76.44
36138;BME280;67787;50.074;21.904;2023-04-10T08:24:10;99693.00;;;11.33;76.09
36138;BME280;67787;50.074;21.904;2023-04-10T08:26:38;99689.20;;;11.52;76.54
36138;BME280;67787;50.074;21.904;2023-04-10T08:29:13;99687.11;;;11.79;76.55
36138;BME280;67787;50.074;21.904;2023-04-10T08:31:41;99681.60;;;12.13;76.47
36138;BME280;67787;50.074;21.904;2023-04-10T08:34:09;99679.43;;;12.42;75.68
36138;BME280;67787;50.074;21.904;2023-04-10T08:36:38;99674.04;;;12.63;76.11
36138;BME280;67787;50.074;21.904;2023-04-10T08:39:06;99678.19;;;12.77;75.61
36138;BME280;67787;50.074;21.904;2023-04-10T08:41:39;99678.26;;;12.89;75.62
36138;BME280;67787;50.074;21.904;2023-04-10T08:44:08;99673.20;;;12.97;75.61
36138;BME280;67787;50.074;21.904;2023-04-10T08:46:41;99676.15;;;12.99;75.43
36138;BME280;67787;50.074;21.904;2023-04-10T08:49:16;99672.53;;;12.99;75.41
36138;BME280;67787;50.074;21.904;2023-04-10T08:51:51;99678.71;;;13.02;74.97
36138;BME280;67787;50.074;21.904;2023-04-10T08:54:26;99672.19;;;13.04;74.83
36138;BME280;67787;50.074;21.904;2023-04-10T08:56:55;99672.85;;;13.04;75.14
36138;BME280;67787;50.074;21.904;2023-04-10T08:59:26;99670.35;;;12.95;74.83
36138;BME280;67787;50.074;21.904;2023-04-10T09:02:01;99666.59;;;12.80;74.99
36138;BME280;67787;50.074;21.904;2023-04-10T09:04:30;99665.07;;;12.61;74.25
36138;BME280;67787;50.074;21.904;2023-04-10T09:06:59;99660.88;;;12.45;74.62
36138;BME280;67787;50.074;21.904;2023-04-10T09:09:27;99658.02;;;12.32;74.17
36138;BME280;67787;50.074;21.904;2023-04-10T09:11:59;99660.38;;;12.29;74.00
36138;BME280;67787;50.074;21.904;2023-04-10T09:14:30;99659.04;;;12.28;74.36
36138;BME280;67787;50.074;21.904;2023-04-10T09:17:11;99665.38;;;12.29;74.32
36138;BME280;67787;50.074;21.904;2023-04-10T09:19:40;99658.57;;;12.27;74.19
36138;BME280;67787;50.074;21.904;2023-04-10T09:22:08;99660.39;;;12.30;74.11
36138;BME280;67787;50.074;21.904;2023-04-10T09:24:42;99652.89;;;12.35;74.08
36138;BME280;67787;50.074;21.904;2023-04-10T09:27:10;99648.21;;;12.48;73.22
36138;BME280;67787;50.074;21.904;2023-04-10T09:29:53;99643.38;;;12.71;73.71
36138;BME280;67787;50.074;21.904;2023-04-10T09:32:41;99635.21;;;12.93;74.01
36138;BME280;67787;50.074;21.904;2023-04-10T09:35:11;99639.36;;;13.14;73.91
36138;BME280;67787;50.074;21.904;2023-04-10T09:37:42;99636.82;;;13.24;73.51
36138;BME280;67787;50.074;21.904;2023-04-10T09:40:22;99633.94;;;13.28;73.37
36138;BME280;67787;50.074;21.904;2023-04-10T09:42:52;99626.92;;;13.35;73.47
36138;BME280;67787;50.074;21.904;2023-04-10T09:45:23;99631.59;;;13.48;73.41
36138;BME280;67787;50.074;21.904;2023-04-10T09:50:39;99627.77;;;13.67;72.83
36138;BME280;67787;50.074;21.904;2023-04-10T09:53:09;99625.70;;;13.60;72.88
36138;BME280;67787;50.074;21.904;2023-04-10T09:55:40;99621.44;;;13.54;72.53
36138;BME280;67787;50.074;21.904;2023-04-10T09:58:12;99618.95;;;13.45;72.54
36138;BME280;67787;50.074;21.904;2023-04-10T10:00:46;99621.42;;;13.33;71.85
36138;BME280;67787;50.074;21.904;2023-04-10T10:03:18;99621.02;;;13.24;72.18
36138;BME280;67787;50.074;21.904;2023-04-10T10:05:51;99621.83;;;13.20;72.02
36138;BME280;67787;50.074;21.904;2023-04-10T10:08:20;99616.60;;;13.16;71.73
36138;BME280;67787;50.074;21.904;2023-04-10T10:10:50;99609.44;;;13.14;72.11
36138;BME280;67787;50.074;21.904;2023-04-10T10:13:23;99612.96;;;13.15;72.21
36138;BME280;67787;50.074;21.904;2023-04-10T10:15:57;99608.56;;;13.16;72.02
36138;BME280;67787;50.074;21.904;2023-04-10T10:18:44;99605.66;;;13.15;72.21
36138;BME280;67787;50.074;21.904;2023-04-10T10:21:14;99603.80;;;13.16;72.17
36138;BME280;67787;50.074;21.904;2023-04-10T10:23:43;99601.09;;;13.31;72.22
36138;BME280;67787;50.074;21.904;2023-04-10T10:26:13;99602.65;;;13.58;71.86
36138;BME280;67787;50.074;21.904;2023-04-10T10:28:41;99592.84;;;13.86;71.82
36138;BME280;67787;50.074;21.904;2023-04-10T10:31:10;99582.95;;;14.12;71.58
36138;BME280;67787;50.074;21.904;2023-04-10T10:33:39;99578.71;;;14.27;71.18
36138;BME280;67787;50.074;21.904;2023-04-10T10:36:08;99576.64;;;14.29;71.04
36138;BME280;67787;50.074;21.904;2023-04-10T10:38:40;99571.60;;;14.21;70.94
36138;BME280;67787;50.074;21.904;2023-04-10T10:41:12;99574.14;;;14.20;70.37
36138;BME280;67787;50.074;21.904;2023-04-10T10:43:49;99570.53;;;14.27;70.81
36138;BME280;67787;50.074;21.904;2023-04-10T10:46:24;99571.16;;;14.39;70.74
36138;BME280;67787;50.074;21.904;2023-04-10T10:48:57;99563.13;;;14.46;70.88
36138;BME280;67787;50.074;21.904;2023-04-10T10:51:50;99560.13;;;14.48;70.89
36138;BME280;67787;50.074;21.904;2023-04-10T10:54:33;99557.63;;;14.53;70.67
36138;BME280;67787;50.074;21.904;2023-04-10T10:57:01;99555.10;;;14.64;70.71
36138;BME280;67787;50.074;21.904;2023-04-10T10:59:58;99549.91;;;14.73;70.57
36138;BME280;67787;50.074;21.904;2023-04-10T11:02:26;99550.37;;;14.83;70.36
36138;BME280;67787;50.074;21.904;2023-04-10T11:04:54;99545.41;;;14.93;68.81
36138;BME280;67787;50.074;21.904;2023-04-10T11:14:20;99527.72;;;15.32;67.42
36138;BME280;67787;50.074;21.904;2023-04-10T11:19:08;99536.61;;;15.20;67.22
36138;BME280;67787;50.074;21.904;2023-04-10T11:22:06;99535.93;;;15.10;67.38
36138;BME280;67787;50.074;21.904;2023-04-10T11:24:59;99537.48;;;14.96;66.16
36138;BME280;67787;50.074;21.904;2023-04-10T11:27:46;99542.15;;;14.76;65.88
36138;BME280;67787;50.074;21.904;2023-04-10T11:30:30;99541.86;;;14.48;66.64
36138;BME280;67787;50.074;21.904;2023-04-10T11:32:59;99544.23;;;14.33;67.31
36138;BME280;67787;50.074;21.904;2023-04-10T11:35:29;99545.08;;;14.26;67.52
36138;BME280;67787;50.074;21.904;2023-04-10T11:38:10;99539.70;;;14.24;67.46
36138;BME280;67787;50.074;21.904;2023-04-10T11:40:55;99530.05;;;14.25;67.45
36138;BME280;67787;50.074;21.904;2023-04-10T11:43:23;99524.23;;;14.26;67.30
36138;BME280;67787;50.074;21.904;2023-04-10T11:46:06;99515.00;;;14.28;66.76
36138;BME280;67787;50.074;21.904;2023-04-10T11:48:35;99514.92;;;14.31;67.07
36138;BME280;67787;50.074;21.904;2023-04-10T11:51:08;99503.70;;;14.38;67.25
36138;BME280;67787;50.074;21.904;2023-04-10T11:53:37;99498.23;;;14.48;67.10
36138;BME280;67787;50.074;21.904;2023-04-10T11:56:14;99488.77;;;14.56;66.95
36138;BME280;67787;50.074;21.904;2023-04-10T11:58:43;99479.66;;;14.68;66.88
36138;BME280;67787;50.074;21.904;2023-04-10T12:01:12;99471.61;;;14.77;66.40
36138;BME280;67787;50.074;21.904;2023-04-10T12:03:42;99469.02;;;14.84;67.40
36138;BME280;67787;50.074;21.904;2023-04-10T12:06:12;99462.95;;;14.91;67.21
36138;BME280;67787;50.074;21.904;2023-04-10T12:08:43;99469.63;;;14.92;67.29
36138;BME280;67787;50.074;21.904;2023-04-10T12:11:16;99470.52;;;14.89;67.05
36138;BME280;67787;50.074;21.904;2023-04-10T12:13:44;99462.50;;;14.92;66.44
36138;BME280;67787;50.074;21.904;2023-04-10T12:16:13;99461.26;;;14.98;65.64
36138;BME280;67787;50.074;21.904;2023-04-10T12:18:41;99450.90;;;15.15;64.58
36138;BME280;67787;50.074;21.904;2023-04-10T12:21:09;99456.16;;;15.43;64.16
36138;BME280;67787;50.074;21.904;2023-04-10T12:23:39;99445.33;;;15.57;64.32
36138;BME280;67787;50.074;21.904;2023-04-10T12:26:14;99448.45;;;15.67;64.30
36138;BME280;67787;50.074;21.904;2023-04-10T12:29:03;99451.22;;;15.61;62.85
36138;BME280;67787;50.074;21.904;2023-04-10T12:31:35;99451.60;;;15.59;62.99
36138;BME280;67787;50.074;21.904;2023-04-10T12:34:03;99447.05;;;15.56;62.88
36138;BME280;67787;50.074;21.904;2023-04-10T12:36:35;99448.23;;;15.44;62.23
36138;BME280;67787;50.074;21.904;2023-04-10T12:39:04;99452.13;;;15.38;62.49
36138;BME280;67787;50.074;21.904;2023-04-10T12:41:48;99448.77;;;15.29;61.62
36138;BME280;67787;50.074;21.904;2023-04-10T12:44:16;99448.62;;;15.23;61.96
36138;BME280;67787;50.074;21.904;2023-04-10T12:46:46;99446.40;;;15.17;61.75
36138;BME280;67787;50.074;21.904;2023-04-10T12:49:15;99443.34;;;15.11;61.62
36138;BME280;67787;50.074;21.904;2023-04-10T12:51:51;99436.35;;;15.08;61.34
36138;BME280;67787;50.074;21.904;2023-04-10T12:54:29;99435.08;;;15.10;60.43
36138;BME280;67787;50.074;21.904;2023-04-10T12:57:00;99432.54;;;15.09;60.31
36138;BME280;67787;50.074;21.904;2023-04-10T12:59:29;99434.31;;;15.08;59.94
36138;BME280;67787;50.074;21.904;2023-04-10T13:01:58;99431.91;;;15.15;59.50
36138;BME280;67787;50.074;21.904;2023-04-10T13:04:29;99427.89;;;15.25;59.23
36138;BME280;67787;50.074;21.904;2023-04-10T13:06:58;99414.02;;;15.39;60.09
36138;BME280;67787;50.074;21.904;2023-04-10T13:09:26;99416.79;;;15.60;59.64
36138;BME280;67787;50.074;21.904;2023-04-10T13:11:54;99406.77;;;15.77;59.75
36138;BME280;67787;50.074;21.904;2023-04-10T13:14:24;99405.36;;;15.89;59.55
36138;BME280;67787;50.074;21.904;2023-04-10T13:16:52;99399.90;;;15.86;58.84
36138;BME280;67787;50.074;21.904;2023-04-10T13:19:23;99395.95;;;15.80;59.37
36138;BME280;67787;50.074;21.904;2023-04-10T13:21:51;99394.12;;;15.72;59.66
36138;BME280;67787;50.074;21.904;2023-04-10T13:24:20;99398.33;;;15.63;59.47
36138;BME280;67787;50.074;21.904;2023-04-10T13:26:48;99398.73;;;15.56;58.17
36138;BME280;67787;50.074;21.904;2023-04-10T13:29:17;99399.52;;;15.49;58.90